createdAt,value
2023-01-18T00:00:41.263Z,5.68
2023-01-18T00:03:13.274Z,5.64
2023-01-18T00:05:41.438Z,5.60
2023-01-18T00:08:09.921Z,5.59
2023-01-18T00:10:36.863Z,5.61
2023-01-18T00:13:04.122Z,5.65
2023-01-18T00:15:34.816Z,5.66
2023-01-18T00:18:01.992Z,5.66
2023-01-18T00:20:30.113Z,5.67
2023-01-18T00:22:59.198Z,5.67
2023-01-18T00:25:26.137Z,5.62
2023-01-18T00:27:54.961Z,5.77
2023-01-18T00:30:25.061Z,5.81
2023-01-18T00:32:59.186Z,5.83
2023-01-18T00:35:26.565Z,5.78
2023-01-18T00:37:54.096Z,5.76
2023-01-18T00:40:22.413Z,5.81
2023-01-18T00:43:07.578Z,5.84
2023-01-18T00:45:34.311Z,6.05
2023-01-18T00:48:02.770Z,5.92
2023-01-18T00:50:29.687Z,6.00
2023-01-18T00:52:58.608Z,5.98
2023-01-18T00:55:26.538Z,5.91
2023-01-18T00:57:53.187Z,5.87
2023-01-18T01:00:20.445Z,5.88
2023-01-18T01:02:47.093Z,5.83
2023-01-18T01:05:38.131Z,5.82
2023-01-18T01:08:06.075Z,5.85
2023-01-18T01:10:36.038Z,5.84
2023-01-18T01:13:21.168Z,5.92
2023-01-18T01:16:06.090Z,6.13
2023-01-18T01:18:51.385Z,6.08
2023-01-18T01:21:36.959Z,6.11
2023-01-18T01:24:22.177Z,6.07
2023-01-18T01:26:48.786Z,5.90
2023-01-18T01:29:16.034Z,5.83
2023-01-18T01:31:42.667Z,5.78
2023-01-18T01:34:09.902Z,5.80
2023-01-18T01:36:36.632Z,5.76
2023-01-18T01:39:03.428Z,5.89
2023-01-18T01:41:40.568Z,6.04
2023-01-18T01:44:20.132Z,5.97
2023-01-18T01:47:06.805Z,6.02
2023-01-18T01:49:35.032Z,5.94
2023-01-18T01:52:08.020Z,5.92
2023-01-18T01:54:47.688Z,5.98
2023-01-18T01:57:31.874Z,5.93
2023-01-18T02:00:08.203Z,5.86
2023-01-18T02:02:35.790Z,5.78
2023-01-18T02:05:05.486Z,5.87
2023-01-18T02:07:32.862Z,5.85
2023-01-18T02:10:00.936Z,5.79
2023-01-18T02:12:29.273Z,5.63
2023-01-18T02:14:57.971Z,5.65
2023-01-18T02:17:38.600Z,5.60
2023-01-18T02:20:24.865Z,5.49
2023-01-18T02:23:19.251Z,5.43
2023-01-18T02:25:51.652Z,5.50
2023-01-18T02:28:30.022Z,5.52
2023-01-18T02:31:18.385Z,5.42
2023-01-18T02:33:45.560Z,5.42
2023-01-18T02:36:31.861Z,5.47
2023-01-18T02:39:10.731Z,5.57
2023-01-18T02:42:07.205Z,5.49
2023-01-18T02:44:59.276Z,5.47
2023-01-18T02:47:27.760Z,5.52
2023-01-18T02:49:56.671Z,5.47
2023-01-18T02:52:53.638Z,5.23
2023-01-18T02:55:41.943Z,5.18
2023-01-18T02:58:33.962Z,5.25
2023-01-18T03:01:11.977Z,5.26
2023-01-18T03:03:42.493Z,5.24
2023-01-18T03:06:09.313Z,5.18
2023-01-18T03:08:40.632Z,5.17
2023-01-18T03:11:16.671Z,5.22
2023-01-18T03:13:43.232Z,5.16
2023-01-18T03:16:18.590Z,5.14
2023-01-18T03:19:35.581Z,5.22
2023-01-18T03:22:03.143Z,5.24
2023-01-18T03:24:31.296Z,5.25
2023-01-18T03:27:18.090Z,5.32
2023-01-18T03:30:05.482Z,5.29
2023-01-18T03:32:53.567Z,5.21
2023-01-18T03:35:26.881Z,5.21
2023-01-18T03:37:56.384Z,5.36
2023-01-18T03:40:26.555Z,5.43
2023-01-18T03:43:02.023Z,5.49
2023-01-18T03:45:42.357Z,5.46
2023-01-18T03:48:10.420Z,5.48
2023-01-18T03:50:53.129Z,5.44
2023-01-18T03:53:54.695Z,5.38
2023-01-18T03:56:24.100Z,5.22
2023-01-18T03:58:54.337Z,5.14
2023-01-18T04:01:21.684Z,5.18
2023-01-18T04:03:48.437Z,5.26
2023-01-18T04:06:17.282Z,5.34
2023-01-18T04:08:46.802Z,5.31
2023-01-18T04:11:13.902Z,5.06
2023-01-18T04:13:40.540Z,4.97
2023-01-18T04:16:07.491Z,4.99
2023-01-18T04:18:34.135Z,5.03
2023-01-18T04:21:04.045Z,5.03
2023-01-18T04:23:30.699Z,5.02
2023-01-18T04:26:11.969Z,5.06
2023-01-18T04:28:38.544Z,5.12
2023-01-18T04:31:05.596Z,5.17
2023-01-18T04:33:32.624Z,5.20
2023-01-18T04:35:59.274Z,5.22
2023-01-18T04:38:26.238Z,5.29
2023-01-18T04:40:54.400Z,5.18
2023-01-18T04:43:22.637Z,5.13
2023-01-18T04:45:59.127Z,5.12
2023-01-18T04:48:30.847Z,5.21
2023-01-18T04:50:57.481Z,5.34
2023-01-18T04:53:24.174Z,5.55
2023-01-18T04:55:51.348Z,5.53
2023-01-18T04:58:17.941Z,5.45
2023-01-18T05:00:44.794Z,5.47
2023-01-18T05:03:12.398Z,5.55
2023-01-18T05:05:39.214Z,5.54
2023-01-18T05:08:06.054Z,5.57
2023-01-18T05:10:33.731Z,5.51
2023-01-18T05:13:00.931Z,5.40
2023-01-18T05:15:27.891Z,5.37
2023-01-18T05:17:54.491Z,5.38
2023-01-18T05:20:21.060Z,5.46
2023-01-18T05:22:47.722Z,5.51
2023-01-18T05:25:14.513Z,5.56
2023-01-18T05:27:41.163Z,5.61
2023-01-18T05:30:09.778Z,5.62
2023-01-18T05:32:36.404Z,5.53
2023-01-18T05:35:05.113Z,5.51
2023-01-18T05:37:31.751Z,5.44
2023-01-18T05:39:59.378Z,5.37
2023-01-18T05:42:26.020Z,5.42
2023-01-18T05:44:52.742Z,5.47
2023-01-18T05:47:19.374Z,5.36
2023-01-18T05:49:45.972Z,5.31
2023-01-18T05:52:12.830Z,5.32
2023-01-18T05:54:39.536Z,5.30
2023-01-18T05:57:06.124Z,5.25
2023-01-18T05:59:32.737Z,5.32
2023-01-18T06:01:59.410Z,5.40
2023-01-18T06:04:26.139Z,5.37
2023-01-18T06:06:52.786Z,5.46
2023-01-18T06:09:19.385Z,5.51
2023-01-18T06:11:45.994Z,5.53
2023-01-18T06:14:12.790Z,5.50
2023-01-18T06:16:39.548Z,5.51
2023-01-18T06:19:06.140Z,5.49
2023-01-18T06:21:32.885Z,5.50
2023-01-18T06:23:59.543Z,5.56
2023-01-18T06:26:26.225Z,5.54
2023-01-18T06:28:53.625Z,5.59
2023-01-18T06:31:20.368Z,5.60
2023-01-18T06:33:47.113Z,5.61
2023-01-18T06:36:13.729Z,5.64
2023-01-18T06:38:41.418Z,5.64
2023-01-18T06:41:09.302Z,5.68
2023-01-18T06:43:35.957Z,5.76
2023-01-18T06:46:02.937Z,5.80
2023-01-18T06:48:29.930Z,5.81
2023-01-18T06:50:57.521Z,5.82
2023-01-18T06:53:24.610Z,5.83
2023-01-18T06:55:58.567Z,5.85
2023-01-18T06:58:26.574Z,5.86
2023-01-18T07:00:57.663Z,5.87
2023-01-18T07:03:25.611Z,5.86
2023-01-18T07:06:00.186Z,5.87
2023-01-18T07:08:28.033Z,5.89
2023-01-18T07:10:54.958Z,5.89
2023-01-18T07:13:22.256Z,5.90
2023-01-18T07:16:00.776Z,5.95
2023-01-18T07:18:29.626Z,6.00
2023-01-18T07:21:00.846Z,6.00
2023-01-18T07:23:28.711Z,5.97
2023-01-18T07:26:06.025Z,5.87
2023-01-18T07:28:33.516Z,5.96
2023-01-18T07:31:01.076Z,6.04
2023-01-18T07:33:28.637Z,6.09
2023-01-18T07:35:56.809Z,6.12
2023-01-18T07:38:24.106Z,6.18
2023-01-18T07:41:14.305Z,6.22
2023-01-18T07:43:42.789Z,6.17
2023-01-18T07:46:12.239Z,6.20
2023-01-18T07:48:39.186Z,6.23
2023-01-18T07:51:08.771Z,6.26
2023-01-18T07:53:37.265Z,6.27
2023-01-18T07:56:08.134Z,6.30
2023-01-18T07:58:36.384Z,6.38
2023-01-18T08:01:11.568Z,6.24
2023-01-18T08:03:41.398Z,6.05
2023-01-18T08:06:13.511Z,6.01
2023-01-18T08:08:40.627Z,5.99
2023-01-18T08:11:07.856Z,6.03
2023-01-18T08:13:34.548Z,6.06
2023-01-18T08:16:03.093Z,6.13
2023-01-18T08:18:29.993Z,6.20
2023-01-18T08:20:56.842Z,6.24
2023-01-18T08:23:23.777Z,6.37
2023-01-18T08:25:51.162Z,6.53
2023-01-18T08:28:18.793Z,6.67
2023-01-18T08:30:47.291Z,6.70
2023-01-18T08:33:14.775Z,6.79
2023-01-18T08:35:42.765Z,6.68
2023-01-18T08:38:09.860Z,6.59
2023-01-18T08:40:36.733Z,6.63
2023-01-18T08:43:06.686Z,6.76
2023-01-18T08:45:35.092Z,7.08
2023-01-18T08:48:04.387Z,7.32
2023-01-18T08:50:32.650Z,7.56
2023-01-18T08:53:00.591Z,7.74
2023-01-18T08:55:28.444Z,7.90
2023-01-18T08:57:57.657Z,7.96
2023-01-18T09:00:26.894Z,7.88
2023-01-18T09:02:53.580Z,7.90
2023-01-18T09:05:20.263Z,7.93
2023-01-18T09:07:47.495Z,7.94
2023-01-18T09:10:14.295Z,7.95
2023-01-18T09:12:41.076Z,7.97
2023-01-18T09:15:07.895Z,8.02
2023-01-18T09:17:34.431Z,8.07
2023-01-18T09:20:00.898Z,8.09
2023-01-18T09:22:27.416Z,8.15
2023-01-18T09:24:54.029Z,8.20
2023-01-18T09:27:20.583Z,8.22
2023-01-18T09:29:52.241Z,8.24
2023-01-18T09:32:20.227Z,8.22
2023-01-18T09:34:50.871Z,8.18
2023-01-18T09:37:19.233Z,8.20
2023-01-18T09:39:51.773Z,8.18
2023-01-18T09:42:29.898Z,8.27
2023-01-18T09:44:59.821Z,8.30
2023-01-18T09:47:39.498Z,8.34
2023-01-18T09:50:13.599Z,8.33
2023-01-18T09:52:52.246Z,8.36
2023-01-18T09:55:28.925Z,8.37
2023-01-18T09:58:16.808Z,8.56
2023-01-18T10:00:47.677Z,8.61
2023-01-18T10:03:26.315Z,8.70
2023-01-18T10:06:08.609Z,8.92
2023-01-18T10:08:49.972Z,8.98
2023-01-18T10:11:32.171Z,9.00
2023-01-18T10:13:58.704Z,8.98
2023-01-18T10:16:25.928Z,8.97
2023-01-18T10:18:55.680Z,8.84
2023-01-18T10:21:47.442Z,8.75
2023-01-18T10:24:32.950Z,8.62
2023-01-18T10:27:19.727Z,8.48
2023-01-18T10:30:00.629Z,8.35
2023-01-18T10:32:28.351Z,8.20
2023-01-18T10:34:55.333Z,8.19
2023-01-18T10:37:28.009Z,8.25
2023-01-18T10:40:02.219Z,8.33
2023-01-18T10:42:47.812Z,8.45
2023-01-18T10:45:22.236Z,8.66
2023-01-18T10:47:49.679Z,8.90
2023-01-18T10:50:33.441Z,9.17
2023-01-18T10:53:19.269Z,9.34
2023-01-18T10:56:04.656Z,9.61
2023-01-18T10:58:33.401Z,9.86
2023-01-18T11:01:00.985Z,10.07
2023-01-18T11:03:28.593Z,10.20
2023-01-18T11:06:04.383Z,10.29
2023-01-18T11:08:35.331Z,10.36
2023-01-18T11:11:03.843Z,10.47
2023-01-18T11:13:31.816Z,10.67
2023-01-18T11:16:06.329Z,10.76
2023-01-18T11:18:33.600Z,10.85
2023-01-18T11:21:00.279Z,11.21
2023-01-18T11:23:36.414Z,11.39
2023-01-18T11:26:12.774Z,11.32
2023-01-18T11:28:39.666Z,11.37
2023-01-18T11:31:16.086Z,11.46
2023-01-18T11:33:55.984Z,11.52
2023-01-18T11:36:41.163Z,11.70
2023-01-18T11:39:23.607Z,11.86
2023-01-18T11:41:52.872Z,11.90
2023-01-18T11:44:25.634Z,11.88
2023-01-18T11:46:58.122Z,12.06
2023-01-18T11:49:29.349Z,12.12
2023-01-18T11:52:03.540Z,12.03
2023-01-18T11:54:43.761Z,12.14
2023-01-18T11:57:12.428Z,12.31
2023-01-18T11:59:43.562Z,-144.75
2023-01-18T12:02:10.213Z,-144.75
2023-01-18T12:04:52.714Z,-144.75
2023-01-18T12:07:25.435Z,-144.75
2023-01-18T12:09:54.140Z,-144.75
2023-01-18T12:12:45.138Z,-144.75
2023-01-18T12:15:23.613Z,-144.75
2023-01-18T12:18:13.928Z,-144.75
2023-01-18T12:21:03.800Z,-144.75
2023-01-18T12:23:45.754Z,-144.75
2023-01-18T12:26:18.217Z,-144.75
2023-01-18T12:28:44.716Z,-144.75
2023-01-18T12:31:14.369Z,-144.75
2023-01-18T12:34:01.449Z,-144.75
2023-01-18T12:36:34.096Z,-144.75
2023-01-18T12:39:07.219Z,-144.75
2023-01-18T12:41:39.792Z,-144.75
2023-01-18T12:44:12.889Z,-144.75
2023-01-18T12:46:42.659Z,-144.75
2023-01-18T12:49:19.122Z,-144.75
2023-01-18T12:51:48.382Z,-144.75
2023-01-18T12:54:35.908Z,-144.75
2023-01-18T12:57:04.323Z,-144.75
2023-01-18T13:00:09.340Z,-144.75
2023-01-18T13:02:40.746Z,-144.75
2023-01-18T13:05:14.530Z,-144.75
2023-01-18T13:07:44.677Z,-144.75
2023-01-18T13:10:20.203Z,-144.75
2023-01-18T13:12:48.617Z,-144.75
2023-01-18T13:15:24.451Z,-144.75
2023-01-18T13:17:51.174Z,-144.75
2023-01-18T13:20:19.745Z,-144.75
2023-01-18T13:22:58.445Z,-144.75
2023-01-18T13:25:43.691Z,-144.75
2023-01-18T13:28:18.156Z,-144.75
2023-01-18T13:30:50.567Z,-144.75
2023-01-18T13:33:22.346Z,11.31
2023-01-18T13:35:51.414Z,11.37
2023-01-18T13:38:22.275Z,11.22
2023-01-18T13:40:54.814Z,10.99
2023-01-18T13:43:36.758Z,10.82
2023-01-18T13:46:03.386Z,10.61
2023-01-18T13:48:36.393Z,10.51
2023-01-18T13:51:02.912Z,10.39
2023-01-18T13:53:31.675Z,10.31
2023-01-18T13:56:05.026Z,10.18
2023-01-18T13:58:33.113Z,10.10
2023-01-18T14:01:03.700Z,10.08
2023-01-18T14:03:33.542Z,9.90
2023-01-18T14:06:05.923Z,9.92
2023-01-18T14:08:34.380Z,9.91
2023-01-18T14:11:05.845Z,9.92
2023-01-18T14:13:44.734Z,9.93
2023-01-18T14:16:25.656Z,9.99
2023-01-18T14:18:56.919Z,9.94
2023-01-18T14:21:26.252Z,9.93
2023-01-18T14:24:02.017Z,9.88
2023-01-18T14:26:30.935Z,9.90
2023-01-18T14:28:59.536Z,9.94
2023-01-18T14:31:35.480Z,10.04
2023-01-18T14:34:20.851Z,10.02
2023-01-18T14:36:47.333Z,9.97
2023-01-18T14:39:14.922Z,9.90
2023-01-18T14:41:45.901Z,9.78
2023-01-18T14:44:16.866Z,9.69
2023-01-18T14:46:49.937Z,9.57
2023-01-18T14:49:20.730Z,9.47
2023-01-18T14:51:51.946Z,9.33
2023-01-18T14:54:18.835Z,9.18
2023-01-18T14:56:45.692Z,9.06
2023-01-18T14:59:22.750Z,8.94
2023-01-18T15:02:15.293Z,8.83
2023-01-18T15:04:46.856Z,8.65
2023-01-18T15:07:18.622Z,8.66
2023-01-18T15:09:48.347Z,8.54
2023-01-18T15:12:29.472Z,8.43
2023-01-18T15:18:10.661Z,8.15
2023-01-18T15:20:48.538Z,8.04
2023-01-18T15:23:15.219Z,8.06
2023-01-18T15:25:41.725Z,7.97
2023-01-18T15:28:24.541Z,7.89
2023-01-18T15:30:54.715Z,7.86
2023-01-18T15:33:22.495Z,7.83
2023-01-18T15:36:00.743Z,7.70
2023-01-18T15:38:27.705Z,7.59
2023-01-18T15:41:04.681Z,7.47
2023-01-18T15:43:33.969Z,7.35
2023-01-18T15:46:01.357Z,7.25
2023-01-18T15:48:31.014Z,7.17
2023-01-18T15:51:04.310Z,7.10
2023-01-18T15:53:33.087Z,7.06
2023-01-18T15:56:05.251Z,7.00
2023-01-18T15:58:41.023Z,6.88
2023-01-18T16:01:16.549Z,6.85
2023-01-18T16:03:46.777Z,6.79
2023-01-18T16:06:16.920Z,6.74
2023-01-18T16:09:01.731Z,6.66
2023-01-18T16:11:38.945Z,6.57
2023-01-18T16:14:16.932Z,6.57
2023-01-18T16:16:43.969Z,6.54
2023-01-18T16:19:21.355Z,6.47
2023-01-18T16:22:07.073Z,6.35
2023-01-18T16:24:46.152Z,6.28
2023-01-18T16:27:23.047Z,6.24
2023-01-18T16:29:52.932Z,6.25
2023-01-18T16:32:28.080Z,6.18
2023-01-18T16:35:00.912Z,6.09
2023-01-18T16:37:27.891Z,6.04
2023-01-18T16:39:55.428Z,6.01
2023-01-18T16:42:29.622Z,5.90
2023-01-18T16:44:59.865Z,5.91
2023-01-18T16:47:26.537Z,5.81
2023-01-18T16:49:53.227Z,5.72
2023-01-18T16:52:19.895Z,5.56
2023-01-18T16:54:46.671Z,5.57
2023-01-18T16:57:23.861Z,5.57
2023-01-18T16:59:50.959Z,5.55
2023-01-18T17:02:17.704Z,5.60
2023-01-18T17:04:46.635Z,5.59
2023-01-18T17:07:13.869Z,5.64
2023-01-18T17:09:48.553Z,5.52
2023-01-18T17:12:16.203Z,5.50
2023-01-18T17:14:42.963Z,5.49
2023-01-18T17:17:11.083Z,5.39
2023-01-18T17:19:38.161Z,5.33
2023-01-18T17:22:06.297Z,5.29
2023-01-18T17:24:33.044Z,5.31
2023-01-18T17:26:59.699Z,5.27
2023-01-18T17:29:26.324Z,5.30
2023-01-18T17:31:53.410Z,5.25
2023-01-18T17:34:29.531Z,5.30
2023-01-18T17:36:58.401Z,5.22
2023-01-18T17:39:36.908Z,5.23
2023-01-18T17:42:16.448Z,5.23
2023-01-18T17:44:45.714Z,5.21
2023-01-18T17:47:13.039Z,5.31
2023-01-18T17:49:39.707Z,5.34
2023-01-18T17:52:06.368Z,5.35
2023-01-18T17:54:34.902Z,5.33
2023-01-18T17:57:01.707Z,5.37
2023-01-18T17:59:28.417Z,5.36
2023-01-18T18:01:55.216Z,5.31
2023-01-18T18:04:21.871Z,5.27
2023-01-18T18:06:54.270Z,5.20
2023-01-18T18:09:21.426Z,5.15
2023-01-18T18:14:29.050Z,5.13
2023-01-18T18:16:55.696Z,5.12
2023-01-18T18:19:33.936Z,5.15
2023-01-18T18:22:01.241Z,5.17
2023-01-18T18:24:27.996Z,5.13
2023-01-18T18:26:54.640Z,5.13
2023-01-18T18:29:21.358Z,5.07
2023-01-18T18:31:48.028Z,5.02
2023-01-18T18:34:14.684Z,5.12
2023-01-18T18:36:41.395Z,5.11
2023-01-18T18:39:08.955Z,5.13
2023-01-18T18:41:35.799Z,5.15
2023-01-18T18:44:02.952Z,5.02
2023-01-18T18:46:29.798Z,5.07
2023-01-18T18:48:56.673Z,5.06
2023-01-18T18:51:26.508Z,4.98
2023-01-18T18:53:53.365Z,5.07
2023-01-18T18:56:20.779Z,5.12
2023-01-18T18:58:51.204Z,4.94
2023-01-18T19:01:23.652Z,5.01
2023-01-18T19:03:51.982Z,4.96
2023-01-18T19:06:20.550Z,4.84
2023-01-18T19:08:47.575Z,4.86
2023-01-18T19:11:15.685Z,4.78
2023-01-18T19:13:43.388Z,4.64
2023-01-18T19:16:10.583Z,4.53
2023-01-18T19:18:37.343Z,4.41
2023-01-18T19:21:04.772Z,4.47
2023-01-18T19:23:31.618Z,4.41
2023-01-18T19:25:58.894Z,4.41
2023-01-18T19:28:25.581Z,4.44
2023-01-18T19:30:52.221Z,4.48
2023-01-18T19:33:18.807Z,4.44
2023-01-18T19:35:46.119Z,4.32
2023-01-18T19:38:13.589Z,4.25
2023-01-18T19:40:40.198Z,4.16
2023-01-18T19:43:09.323Z,4.08
2023-01-18T19:45:37.617Z,4.14
2023-01-18T19:48:05.225Z,4.13
2023-01-18T19:50:32.113Z,4.07
2023-01-18T19:52:59.737Z,4.03
2023-01-18T19:55:26.594Z,4.07
2023-01-18T19:57:55.924Z,4.12
2023-01-18T20:00:22.907Z,4.21
2023-01-18T20:02:49.635Z,4.34
2023-01-18T20:05:16.790Z,4.43
2023-01-18T20:07:43.564Z,4.49
2023-01-18T20:10:10.912Z,4.52
2023-01-18T20:12:38.448Z,4.54
2023-01-18T20:15:06.296Z,4.59
2023-01-18T20:17:33.179Z,4.68
2023-01-18T20:19:59.853Z,4.66
2023-01-18T20:22:26.569Z,4.74
2023-01-18T20:24:53.565Z,4.68
2023-01-18T20:27:23.071Z,4.66
2023-01-18T20:29:53.337Z,4.57
2023-01-18T20:32:19.991Z,4.57
2023-01-18T20:34:47.442Z,4.47
2023-01-18T20:37:15.477Z,4.42
2023-01-18T20:39:42.605Z,4.40
2023-01-18T20:42:09.437Z,4.43
2023-01-18T20:44:36.133Z,4.37
2023-01-18T20:47:03.241Z,4.34
2023-01-18T20:49:37.768Z,4.35
2023-01-18T20:52:06.868Z,4.39
2023-01-18T20:54:35.679Z,4.45
2023-01-18T20:57:03.473Z,4.46
2023-01-18T20:59:30.159Z,4.48
2023-01-18T21:01:57.028Z,4.57
2023-01-18T21:04:24.814Z,4.59
2023-01-18T21:06:51.440Z,4.58
2023-01-18T21:09:18.220Z,4.52
2023-01-18T21:11:45.011Z,4.45
2023-01-18T21:14:12.793Z,4.47
2023-01-18T21:16:39.436Z,4.54
2023-01-18T21:19:06.136Z,4.60
2023-01-18T21:21:32.872Z,4.65
2023-01-18T21:24:00.153Z,4.67
2023-01-18T21:26:27.087Z,4.67
2023-01-18T21:28:54.232Z,4.73
2023-01-18T21:31:21.639Z,4.72
2023-01-18T21:33:48.306Z,4.68
2023-01-18T21:36:20.350Z,4.77
2023-01-18T21:38:47.271Z,4.75
2023-01-18T21:41:32.537Z,4.74
2023-01-18T21:44:21.097Z,4.85
2023-01-18T21:46:49.335Z,4.94
2023-01-18T21:52:39.833Z,5.03
2023-01-18T21:55:06.845Z,5.06
2023-01-18T21:57:33.430Z,5.05
2023-01-18T22:00:00.036Z,5.04
2023-01-18T22:02:26.737Z,5.05
2023-01-18T22:05:00.198Z,5.09
2023-01-18T22:07:28.150Z,5.05
2023-01-18T22:10:04.163Z,5.03
2023-01-18T22:12:33.432Z,4.98
2023-01-18T22:15:02.141Z,4.89
2023-01-18T22:17:29.158Z,4.85
2023-01-18T22:19:58.228Z,4.79
2023-01-18T22:22:24.982Z,4.73
2023-01-18T22:24:51.888Z,4.67
2023-01-18T22:27:18.517Z,4.70
2023-01-18T22:29:45.426Z,4.73
2023-01-18T22:32:12.165Z,4.70
2023-01-18T22:34:38.838Z,4.70
2023-01-18T22:37:05.830Z,4.73
2023-01-18T22:39:32.472Z,4.74
2023-01-18T22:41:59.157Z,4.74
2023-01-18T22:44:25.845Z,4.71
2023-01-18T22:46:52.484Z,4.66
2023-01-18T22:49:19.194Z,4.66
2023-01-18T22:51:45.861Z,4.67
2023-01-18T22:54:14.914Z,4.71
2023-01-18T22:56:41.617Z,4.74
2023-01-18T22:59:08.788Z,4.74
2023-01-18T23:01:35.532Z,4.65
2023-01-18T23:04:03.918Z,4.64
2023-01-18T23:06:48.002Z,4.67
2023-01-18T23:09:16.265Z,4.70
2023-01-18T23:11:44.895Z,4.68
2023-01-18T23:14:30.511Z,4.68
2023-01-18T23:17:15.379Z,4.66
2023-01-18T23:19:42.016Z,4.63
2023-01-18T23:22:08.638Z,4.64
2023-01-18T23:24:36.640Z,4.63
2023-01-18T23:27:05.556Z,4.60
2023-01-18T23:29:32.229Z,4.59
2023-01-18T23:31:59.063Z,4.51
2023-01-18T23:34:26.051Z,4.53
2023-01-18T23:36:53.100Z,4.50
2023-01-18T23:39:38.773Z,4.47
2023-01-18T23:42:24.072Z,4.45
2023-01-18T23:45:09.250Z,4.42
2023-01-18T23:47:54.636Z,4.42
2023-01-18T23:50:40.088Z,4.43
2023-01-18T23:53:30.501Z,4.45
2023-01-18T23:55:57.683Z,4.44
2023-01-18T23:58:27.390Z,4.44
